sensor_id;sensor_type;location;lat;lon;timestamp;P1;durP1;ratioP1;P2;durP2;ratioP2
25731;SDS011;13585;50.864;4.406;2022-09-09T00:04:38;1.60;;;0.50;;
25731;SDS011;13585;50.864;4.406;2022-09-09T00:07:19;0.85;;;0.40;;
25731;SDS011;13585;50.864;4.406;2022-09-09T00:12:39;1.50;;;0.60;;
25731;SDS011;13585;50.864;4.406;2022-09-09T00:15:28;0.75;;;0.45;;
25731;SDS011;13585;50.864;4.406;2022-09-09T00:18:10;0.40;;;0.40;;
25731;SDS011;13585;50.864;4.406;2022-09-09T00:21:07;1.52;;;0.40;;
25731;SDS011;13585;50.864;4.406;2022-09-09T00:23:44;0.93;;;0.40;;
25731;SDS011;13585;50.864;4.406;2022-09-09T00:26:38;1.02;;;0.47;;
25731;SDS011;13585;50.864;4.406;2022-09-09T00:32:24;1.02;;;0.50;;
25731;SDS011;13585;50.864;4.406;2022-09-09T00:34:56;0.93;;;0.52;;
25731;SDS011;13585;50.864;4.406;2022-09-09T00:37:25;1.13;;;0.50;;
25731;SDS011;13585;50.864;4.406;2022-09-09T00:39:54;1.05;;;0.50;;
25731;SDS011;13585;50.864;4.406;2022-09-09T00:42:30;0.32;;;0.28;;
25731;SDS011;13585;50.864;4.406;2022-09-09T00:48:20;1.15;;;0.40;;
25731;SDS011;13585;50.864;4.406;2022-09-09T00:50:57;0.80;;;0.35;;
25731;SDS011;13585;50.864;4.406;2022-09-09T00:58:38;0.60;;;0.30;;
25731;SDS011;13585;50.864;4.406;2022-09-09T01:01:12;1.20;;;0.43;;
25731;SDS011;13585;50.864;4.406;2022-09-09T01:03:56;2.15;;;0.60;;
25731;SDS011;13585;50.864;4.406;2022-09-09T01:06:31;1.95;;;0.50;;
25731;SDS011;13585;50.864;4.406;2022-09-09T01:17:07;0.95;;;0.45;;
25731;SDS011;13585;50.864;4.406;2022-09-09T01:22:16;1.08;;;0.50;;
25731;SDS011;13585;50.864;4.406;2022-09-09T01:27:54;0.82;;;0.40;;
25731;SDS011;13585;50.864;4.406;2022-09-09T01:30:25;1.10;;;0.50;;
25731;SDS011;13585;50.864;4.406;2022-09-09T01:32:56;1.17;;;0.32;;
25731;SDS011;13585;50.864;4.406;2022-09-09T01:37:56;0.50;;;0.30;;
25731;SDS011;13585;50.864;4.406;2022-09-09T01:40:23;1.60;;;0.63;;
25731;SDS011;13585;50.864;4.406;2022-09-09T01:42:50;0.85;;;0.40;;
25731;SDS011;13585;50.864;4.406;2022-09-09T01:45:16;1.02;;;0.43;;
25731;SDS011;13585;50.864;4.406;2022-09-09T01:47:42;1.05;;;0.45;;
25731;SDS011;13585;50.864;4.406;2022-09-09T01:50:09;0.65;;;0.20;;
25731;SDS011;13585;50.864;4.406;2022-09-09T01:52:37;0.63;;;0.35;;
25731;SDS011;13585;50.864;4.406;2022-09-09T01:55:03;1.25;;;0.40;;
25731;SDS011;13585;50.864;4.406;2022-09-09T02:00:43;0.77;;;0.40;;
25731;SDS011;13585;50.864;4.406;2022-09-09T02:03:25;0.85;;;0.52;;
25731;SDS011;13585;50.864;4.406;2022-09-09T02:08:57;1.00;;;0.30;;
25731;SDS011;13585;50.864;4.406;2022-09-09T02:11:26;1.38;;;0.60;;
25731;SDS011;13585;50.864;4.406;2022-09-09T02:13:54;1.17;;;0.40;;
25731;SDS011;13585;50.864;4.406;2022-09-09T02:19:15;0.60;;;0.47;;
25731;SDS011;13585;50.864;4.406;2022-09-09T02:21:50;0.65;;;0.35;;
25731;SDS011;13585;50.864;4.406;2022-09-09T02:24:19;1.70;;;0.60;;
25731;SDS011;13585;50.864;4.406;2022-09-09T02:26:49;1.30;;;0.43;;
25731;SDS011;13585;50.864;4.406;2022-09-09T02:29:35;0.93;;;0.30;;
25731;SDS011;13585;50.864;4.406;2022-09-09T02:32:06;1.25;;;0.40;;
25731;SDS011;13585;50.864;4.406;2022-09-09T02:34:37;1.42;;;0.40;;
25731;SDS011;13585;50.864;4.406;2022-09-09T02:37:07;1.75;;;0.57;;
25731;SDS011;13585;50.864;4.406;2022-09-09T02:39:34;1.40;;;0.50;;
25731;SDS011;13585;50.864;4.406;2022-09-09T02:42:00;0.68;;;0.43;;
25731;SDS011;13585;50.864;4.406;2022-09-09T02:44:26;1.10;;;0.47;;
25731;SDS011;13585;50.864;4.406;2022-09-09T02:55:23;1.23;;;0.43;;
25731;SDS011;13585;50.864;4.406;2022-09-09T02:58:09;1.17;;;0.50;;
25731;SDS011;13585;50.864;4.406;2022-09-09T03:00:37;0.40;;;0.30;;
25731;SDS011;13585;50.864;4.406;2022-09-09T03:03:05;1.02;;;0.38;;
25731;SDS011;13585;50.864;4.406;2022-09-09T03:05:31;0.85;;;0.45;;
25731;SDS011;13585;50.864;4.406;2022-09-09T03:07:57;1.60;;;0.45;;
25731;SDS011;13585;50.864;4.406;2022-09-09T03:10:23;1.88;;;0.47;;
25731;SDS011;13585;50.864;4.406;2022-09-09T03:12:49;2.28;;;0.70;;
25731;SDS011;13585;50.864;4.406;2022-09-09T03:15:15;2.50;;;0.60;;
25731;SDS011;13585;50.864;4.406;2022-09-09T03:17:41;2.00;;;0.57;;
25731;SDS011;13585;50.864;4.406;2022-09-09T03:20:08;1.17;;;0.30;;
25731;SDS011;13585;50.864;4.406;2022-09-09T03:22:34;0.95;;;0.40;;
25731;SDS011;13585;50.864;4.406;2022-09-09T03:25:00;1.00;;;0.47;;
25731;SDS011;13585;50.864;4.406;2022-09-09T03:27:27;1.27;;;0.57;;
25731;SDS011;13585;50.864;4.406;2022-09-09T03:29:54;1.67;;;0.30;;
25731;SDS011;13585;50.864;4.406;2022-09-09T03:32:20;1.60;;;0.68;;
25731;SDS011;13585;50.864;4.406;2022-09-09T03:34:47;1.30;;;0.40;;
25731;SDS011;13585;50.864;4.406;2022-09-09T03:37:15;1.30;;;0.60;;
25731;SDS011;13585;50.864;4.406;2022-09-09T03:39:42;1.42;;;0.50;;
25731;SDS011;13585;50.864;4.406;2022-09-09T03:42:09;1.60;;;0.50;;
25731;SDS011;13585;50.864;4.406;2022-09-09T03:44:39;2.05;;;0.70;;
25731;SDS011;13585;50.864;4.406;2022-09-09T03:47:06;1.23;;;0.55;;
25731;SDS011;13585;50.864;4.406;2022-09-09T03:49:31;1.90;;;0.60;;
25731;SDS011;13585;50.864;4.406;2022-09-09T03:51:57;1.60;;;0.80;;
25731;SDS011;13585;50.864;4.406;2022-09-09T03:54:24;1.83;;;0.52;;
25731;SDS011;13585;50.864;4.406;2022-09-09T03:56:50;1.20;;;0.50;;
25731;SDS011;13585;50.864;4.406;2022-09-09T03:59:16;1.33;;;0.50;;
25731;SDS011;13585;50.864;4.406;2022-09-09T04:01:42;1.80;;;0.63;;
25731;SDS011;13585;50.864;4.406;2022-09-09T04:04:09;1.38;;;0.50;;
25731;SDS011;13585;50.864;4.406;2022-09-09T04:06:35;2.15;;;0.50;;
25731;SDS011;13585;50.864;4.406;2022-09-09T04:09:01;2.05;;;0.70;;
25731;SDS011;13585;50.864;4.406;2022-09-09T04:11:28;1.17;;;0.55;;
25731;SDS011;13585;50.864;4.406;2022-09-09T04:13:54;1.95;;;0.50;;
25731;SDS011;13585;50.864;4.406;2022-09-09T04:16:20;1.63;;;0.50;;
25731;SDS011;13585;50.864;4.406;2022-09-09T04:18:45;0.90;;;0.50;;
25731;SDS011;13585;50.864;4.406;2022-09-09T04:21:11;1.63;;;0.70;;
25731;SDS011;13585;50.864;4.406;2022-09-09T04:23:38;1.02;;;0.40;;
25731;SDS011;13585;50.864;4.406;2022-09-09T04:26:04;1.33;;;0.50;;
25731;SDS011;13585;50.864;4.406;2022-09-09T04:28:32;1.48;;;0.73;;
25731;SDS011;13585;50.864;4.406;2022-09-09T04:31:05;1.35;;;0.50;;
25731;SDS011;13585;50.864;4.406;2022-09-09T04:33:34;1.92;;;0.75;;
25731;SDS011;13585;50.864;4.406;2022-09-09T04:36:00;1.98;;;0.60;;
25731;SDS011;13585;50.864;4.406;2022-09-09T04:38:26;2.05;;;1.00;;
25731;SDS011;13585;50.864;4.406;2022-09-09T04:40:52;1.17;;;0.50;;
25731;SDS011;13585;50.864;4.406;2022-09-09T04:43:19;1.33;;;0.50;;
25731;SDS011;13585;50.864;4.406;2022-09-09T04:45:49;1.00;;;0.50;;
25731;SDS011;13585;50.864;4.406;2022-09-09T04:48:16;2.22;;;0.60;;
25731;SDS011;13585;50.864;4.406;2022-09-09T04:50:42;0.82;;;0.50;;
25731;SDS011;13585;50.864;4.406;2022-09-09T04:53:08;1.58;;;0.60;;
25731;SDS011;13585;50.864;4.406;2022-09-09T04:55:34;1.90;;;0.60;;
25731;SDS011;13585;50.864;4.406;2022-09-09T04:58:03;1.55;;;0.60;;
25731;SDS011;13585;50.864;4.406;2022-09-09T05:00:30;0.98;;;0.50;;
25731;SDS011;13585;50.864;4.406;2022-09-09T05:03:06;1.27;;;0.60;;
25731;SDS011;13585;50.864;4.406;2022-09-09T05:05:36;2.65;;;0.70;;
25731;SDS011;13585;50.864;4.406;2022-09-09T05:08:05;1.20;;;0.50;;
25731;SDS011;13585;50.864;4.406;2022-09-09T05:10:52;1.42;;;0.55;;
25731;SDS011;13585;50.864;4.406;2022-09-09T05:13:18;1.15;;;0.55;;
25731;SDS011;13585;50.864;4.406;2022-09-09T05:15:51;1.15;;;0.55;;
25731;SDS011;13585;50.864;4.406;2022-09-09T05:18:18;2.10;;;0.60;;
25731;SDS011;13585;50.864;4.406;2022-09-09T05:20:43;2.60;;;0.77;;
25731;SDS011;13585;50.864;4.406;2022-09-09T05:23:09;1.40;;;0.50;;
25731;SDS011;13585;50.864;4.406;2022-09-09T05:25:38;1.25;;;0.60;;
25731;SDS011;13585;50.864;4.406;2022-09-09T05:28:05;2.80;;;0.63;;
25731;SDS011;13585;50.864;4.406;2022-09-09T05:30:33;1.73;;;0.50;;
25731;SDS011;13585;50.864;4.406;2022-09-09T05:32:59;1.35;;;0.50;;
25731;SDS011;13585;50.864;4.406;2022-09-09T05:35:26;2.75;;;0.90;;
25731;SDS011;13585;50.864;4.406;2022-09-09T05:37:52;2.55;;;0.68;;
25731;SDS011;13585;50.864;4.406;2022-09-09T05:40:18;2.90;;;0.60;;
25731;SDS011;13585;50.864;4.406;2022-09-09T05:42:44;0.95;;;0.60;;
25731;SDS011;13585;50.864;4.406;2022-09-09T05:45:10;1.52;;;0.60;;
25731;SDS011;13585;50.864;4.406;2022-09-09T05:47:35;3.00;;;0.70;;
25731;SDS011;13585;50.864;4.406;2022-09-09T05:50:02;1.98;;;0.70;;
25731;SDS011;13585;50.864;4.406;2022-09-09T05:52:29;1.27;;;0.55;;
25731;SDS011;13585;50.864;4.406;2022-09-09T05:54:55;1.95;;;0.68;;
25731;SDS011;13585;50.864;4.406;2022-09-09T05:57:22;1.10;;;0.40;;
25731;SDS011;13585;50.864;4.406;2022-09-09T05:59:47;3.72;;;0.95;;
25731;SDS011;13585;50.864;4.406;2022-09-09T06:02:14;2.25;;;0.75;;
25731;SDS011;13585;50.864;4.406;2022-09-09T06:04:40;1.98;;;0.70;;
25731;SDS011;13585;50.864;4.406;2022-09-09T06:07:07;2.25;;;0.70;;
25731;SDS011;13585;50.864;4.406;2022-09-09T06:09:32;4.10;;;1.17;;
25731;SDS011;13585;50.864;4.406;2022-09-09T06:11:58;2.40;;;0.75;;
25731;SDS011;13585;50.864;4.406;2022-09-09T06:14:24;3.35;;;1.00;;
25731;SDS011;13585;50.864;4.406;2022-09-09T06:16:53;2.08;;;0.73;;
25731;SDS011;13585;50.864;4.406;2022-09-09T06:19:18;2.30;;;0.63;;
25731;SDS011;13585;50.864;4.406;2022-09-09T06:21:45;2.58;;;0.70;;
25731;SDS011;13585;50.864;4.406;2022-09-09T06:24:12;2.85;;;0.70;;
25731;SDS011;13585;50.864;4.406;2022-09-09T06:26:42;1.88;;;0.63;;
25731;SDS011;13585;50.864;4.406;2022-09-09T06:29:11;2.63;;;0.80;;
25731;SDS011;13585;50.864;4.406;2022-09-09T06:31:37;1.83;;;0.77;;
25731;SDS011;13585;50.864;4.406;2022-09-09T06:34:06;2.60;;;0.90;;
25731;SDS011;13585;50.864;4.406;2022-09-09T06:36:34;1.85;;;0.63;;
25731;SDS011;13585;50.864;4.406;2022-09-09T06:39:02;2.53;;;0.95;;
25731;SDS011;13585;50.864;4.406;2022-09-09T06:41:30;2.13;;;0.70;;
25731;SDS011;13585;50.864;4.406;2022-09-09T06:43:56;4.45;;;1.10;;
25731;SDS011;13585;50.864;4.406;2022-09-09T06:46:23;6.15;;;0.98;;
25731;SDS011;13585;50.864;4.406;2022-09-09T06:48:55;2.95;;;1.23;;
25731;SDS011;13585;50.864;4.406;2022-09-09T06:51:22;5.45;;;0.98;;
25731;SDS011;13585;50.864;4.406;2022-09-09T06:53:51;4.70;;;1.02;;
25731;SDS011;13585;50.864;4.406;2022-09-09T06:58:48;1.92;;;0.90;;
25731;SDS011;13585;50.864;4.406;2022-09-09T07:01:46;2.53;;;0.98;;
25731;SDS011;13585;50.864;4.406;2022-09-09T07:04:12;6.18;;;1.20;;
25731;SDS011;13585;50.864;4.406;2022-09-09T07:06:39;4.93;;;1.33;;
25731;SDS011;13585;50.864;4.406;2022-09-09T07:09:08;4.30;;;1.05;;
25731;SDS011;13585;50.864;4.406;2022-09-09T07:11:43;7.30;;;0.90;;
25731;SDS011;13585;50.864;4.406;2022-09-09T07:14:10;3.00;;;1.00;;
25731;SDS011;13585;50.864;4.406;2022-09-09T07:16:40;4.47;;;1.08;;
25731;SDS011;13585;50.864;4.406;2022-09-09T07:19:10;5.15;;;1.17;;
25731;SDS011;13585;50.864;4.406;2022-09-09T07:21:36;3.30;;;0.80;;
25731;SDS011;13585;50.864;4.406;2022-09-09T07:24:02;4.38;;;1.00;;
25731;SDS011;13585;50.864;4.406;2022-09-09T07:26:32;4.95;;;1.27;;
25731;SDS011;13585;50.864;4.406;2022-09-09T07:28:58;3.08;;;0.77;;
25731;SDS011;13585;50.864;4.406;2022-09-09T07:31:26;5.63;;;0.93;;
25731;SDS011;13585;50.864;4.406;2022-09-09T07:33:55;3.53;;;1.10;;
25731;SDS011;13585;50.864;4.406;2022-09-09T07:36:22;3.00;;;1.00;;
25731;SDS011;13585;50.864;4.406;2022-09-09T07:38:54;5.05;;;1.10;;
25731;SDS011;13585;50.864;4.406;2022-09-09T07:43:49;2.90;;;0.95;;
25731;SDS011;13585;50.864;4.406;2022-09-09T07:46:17;3.60;;;1.05;;
25731;SDS011;13585;50.864;4.406;2022-09-09T07:48:48;3.45;;;0.85;;
25731;SDS011;13585;50.864;4.406;2022-09-09T07:51:21;3.42;;;1.00;;
25731;SDS011;13585;50.864;4.406;2022-09-09T07:53:55;3.17;;;1.25;;
25731;SDS011;13585;50.864;4.406;2022-09-09T07:56:27;6.50;;;1.15;;
25731;SDS011;13585;50.864;4.406;2022-09-09T07:58:54;2.78;;;1.08;;
25731;SDS011;13585;50.864;4.406;2022-09-09T08:01:40;4.03;;;0.90;;
25731;SDS011;13585;50.864;4.406;2022-09-09T08:04:09;4.13;;;1.20;;
25731;SDS011;13585;50.864;4.406;2022-09-09T08:06:40;4.90;;;1.17;;
25731;SDS011;13585;50.864;4.406;2022-09-09T08:09:08;5.72;;;1.35;;
25731;SDS011;13585;50.864;4.406;2022-09-09T08:11:37;4.45;;;1.08;;
25731;SDS011;13585;50.864;4.406;2022-09-09T08:14:03;3.53;;;1.00;;
25731;SDS011;13585;50.864;4.406;2022-09-09T08:16:30;2.55;;;1.10;;
25731;SDS011;13585;50.864;4.406;2022-09-09T08:18:57;3.53;;;1.13;;
25731;SDS011;13585;50.864;4.406;2022-09-09T08:21:24;3.95;;;0.95;;
25731;SDS011;13585;50.864;4.406;2022-09-09T08:23:53;1.83;;;0.90;;
25731;SDS011;13585;50.864;4.406;2022-09-09T08:26:34;5.03;;;1.08;;
25731;SDS011;13585;50.864;4.406;2022-09-09T08:29:04;1.92;;;0.70;;
25731;SDS011;13585;50.864;4.406;2022-09-09T08:33:58;3.42;;;1.00;;
25731;SDS011;13585;50.864;4.406;2022-09-09T08:36:25;4.35;;;1.00;;
25731;SDS011;13585;50.864;4.406;2022-09-09T08:38:53;2.33;;;0.90;;
25731;SDS011;13585;50.864;4.406;2022-09-09T08:44:28;3.38;;;0.90;;
25731;SDS011;13585;50.864;4.406;2022-09-09T08:53:05;4.40;;;1.00;;
25731;SDS011;13585;50.864;4.406;2022-09-09T08:55:45;2.05;;;1.00;;
25731;SDS011;13585;50.864;4.406;2022-09-09T08:58:30;2.03;;;0.60;;
25731;SDS011;13585;50.864;4.406;2022-09-09T09:03:32;3.92;;;1.05;;
25731;SDS011;13585;50.864;4.406;2022-09-09T09:11:27;2.30;;;0.82;;
25731;SDS011;13585;50.864;4.406;2022-09-09T09:14:20;3.30;;;0.88;;
25731;SDS011;13585;50.864;4.406;2022-09-09T09:17:12;2.00;;;0.80;;
25731;SDS011;13585;50.864;4.406;2022-09-09T09:19:44;1.67;;;0.70;;
25731;SDS011;13585;50.864;4.406;2022-09-09T09:25:23;3.00;;;0.88;;
25731;SDS011;13585;50.864;4.406;2022-09-09T09:28:02;3.80;;;1.10;;
25731;SDS011;13585;50.864;4.406;2022-09-09T09:30:36;3.00;;;0.95;;
25731;SDS011;13585;50.864;4.406;2022-09-09T09:33:29;4.15;;;0.90;;
25731;SDS011;13585;50.864;4.406;2022-09-09T09:36:09;2.72;;;0.88;;
25731;SDS011;13585;50.864;4.406;2022-09-09T09:38:35;3.00;;;0.90;;
25731;SDS011;13585;50.864;4.406;2022-09-09T09:41:02;2.55;;;1.00;;
25731;SDS011;13585;50.864;4.406;2022-09-09T09:43:31;4.78;;;0.88;;
25731;SDS011;13585;50.864;4.406;2022-09-09T09:45:59;4.90;;;1.02;;
25731;SDS011;13585;50.864;4.406;2022-09-09T09:48:26;2.35;;;0.70;;
25731;SDS011;13585;50.864;4.406;2022-09-09T09:54:20;2.40;;;0.90;;
25731;SDS011;13585;50.864;4.406;2022-09-09T09:57:07;3.90;;;1.10;;
25731;SDS011;13585;50.864;4.406;2022-09-09T10:02:40;6.20;;;1.17;;
25731;SDS011;13585;50.864;4.406;2022-09-09T10:05:16;2.67;;;0.90;;
25731;SDS011;13585;50.864;4.406;2022-09-09T10:07:45;4.28;;;0.93;;
25731;SDS011;13585;50.864;4.406;2022-09-09T10:10:17;3.35;;;1.10;;
25731;SDS011;13585;50.864;4.406;2022-09-09T10:13:09;1.90;;;0.90;;
25731;SDS011;13585;50.864;4.406;2022-09-09T10:15:45;3.25;;;1.02;;
25731;SDS011;13585;50.864;4.406;2022-09-09T10:21:19;4.80;;;0.88;;
25731;SDS011;13585;50.864;4.406;2022-09-09T10:26:39;4.22;;;1.10;;
25731;SDS011;13585;50.864;4.406;2022-09-09T10:40:02;3.30;;;0.85;;
25731;SDS011;13585;50.864;4.406;2022-09-09T10:42:58;7.68;;;2.58;;
25731;SDS011;13585;50.864;4.406;2022-09-09T10:45:41;12.80;;;4.75;;
25731;SDS011;13585;50.864;4.406;2022-09-09T10:51:28;22.13;;;9.93;;
25731;SDS011;13585;50.864;4.406;2022-09-09T10:57:03;46.58;;;20.42;;
25731;SDS011;13585;50.864;4.406;2022-09-09T10:59:44;37.30;;;17.50;;
25731;SDS011;13585;50.864;4.406;2022-09-09T11:02:31;34.28;;;11.50;;
25731;SDS011;13585;50.864;4.406;2022-09-09T11:10:06;12.90;;;5.55;;
25731;SDS011;13585;50.864;4.406;2022-09-09T11:12:59;9.63;;;4.10;;
25731;SDS011;13585;50.864;4.406;2022-09-09T11:15:34;11.85;;;4.40;;
25731;SDS011;13585;50.864;4.406;2022-09-09T11:18:06;8.82;;;3.40;;
25731;SDS011;13585;50.864;4.406;2022-09-09T11:20:38;10.68;;;3.97;;
25731;SDS011;13585;50.864;4.406;2022-09-09T11:23:14;7.03;;;3.35;;
25731;SDS011;13585;50.864;4.406;2022-09-09T11:25:56;9.43;;;2.97;;
25731;SDS011;13585;50.864;4.406;2022-09-09T11:28:32;8.13;;;2.75;;
25731;SDS011;13585;50.864;4.406;2022-09-09T11:36:38;6.90;;;2.70;;
25731;SDS011;13585;50.864;4.406;2022-09-09T11:39:41;10.40;;;2.95;;
25731;SDS011;13585;50.864;4.406;2022-09-09T11:42:18;11.02;;;3.80;;
25731;SDS011;13585;50.864;4.406;2022-09-09T11:44:47;11.00;;;4.80;;
25731;SDS011;13585;50.864;4.406;2022-09-09T11:50:35;13.73;;;3.60;;
25731;SDS011;13585;50.864;4.406;2022-09-09T11:55:46;7.05;;;2.97;;
25731;SDS011;13585;50.864;4.406;2022-09-09T12:00:39;6.90;;;2.70;;
25731;SDS011;13585;50.864;4.406;2022-09-09T12:05:59;4.70;;;2.20;;
25731;SDS011;13585;50.864;4.406;2022-09-09T12:08:51;11.60;;;2.65;;
25731;SDS011;13585;50.864;4.406;2022-09-09T12:11:27;7.80;;;2.75;;
25731;SDS011;13585;50.864;4.406;2022-09-09T12:14:19;7.13;;;3.17;;
25731;SDS011;13585;50.864;4.406;2022-09-09T12:19:49;5.80;;;2.63;;
25731;SDS011;13585;50.864;4.406;2022-09-09T12:23:01;6.50;;;2.30;;
25731;SDS011;13585;50.864;4.406;2022-09-09T12:28:22;8.02;;;2.35;;
25731;SDS011;13585;50.864;4.406;2022-09-09T12:36:51;7.75;;;2.63;;
25731;SDS011;13585;50.864;4.406;2022-09-09T12:45:23;8.82;;;2.70;;
25731;SDS011;13585;50.864;4.406;2022-09-09T12:50:22;7.30;;;2.13;;
25731;SDS011;13585;50.864;4.406;2022-09-09T12:56:21;6.80;;;2.10;;
25731;SDS011;13585;50.864;4.406;2022-09-09T13:02:26;5.85;;;2.10;;
25731;SDS011;13585;50.864;4.406;2022-09-09T13:05:06;8.80;;;2.20;;
25731;SDS011;13585;50.864;4.406;2022-09-09T13:11:24;3.77;;;1.30;;
25731;SDS011;13585;50.864;4.406;2022-09-09T13:13:56;2.85;;;1.15;;
25731;SDS011;13585;50.864;4.406;2022-09-09T13:16:25;4.03;;;1.30;;
25731;SDS011;13585;50.864;4.406;2022-09-09T13:18:57;4.25;;;1.33;;
25731;SDS011;13585;50.864;4.406;2022-09-09T13:21:46;4.70;;;1.30;;
25731;SDS011;13585;50.864;4.406;2022-09-09T13:24:25;3.13;;;1.30;;
25731;SDS011;13585;50.864;4.406;2022-09-09T13:27:02;3.85;;;1.30;;
25731;SDS011;13585;50.864;4.406;2022-09-09T13:30:20;6.53;;;1.50;;
25731;SDS011;13585;50.864;4.406;2022-09-09T13:33:00;2.75;;;1.20;;
25731;SDS011;13585;50.864;4.406;2022-09-09T13:35:29;3.92;;;1.63;;
25731;SDS011;13585;50.864;4.406;2022-09-09T13:37:56;4.72;;;1.30;;
25731;SDS011;13585;50.864;4.406;2022-09-09T13:40:23;2.50;;;1.25;;
25731;SDS011;13585;50.864;4.406;2022-09-09T13:42:56;3.10;;;1.25;;
25731;SDS011;13585;50.864;4.406;2022-09-09T13:48:17;4.28;;;1.30;;
25731;SDS011;13585;50.864;4.406;2022-09-09T13:50:53;3.53;;;1.13;;
25731;SDS011;13585;50.864;4.406;2022-09-09T13:53:29;2.53;;;1.02;;
25731;SDS011;13585;50.864;4.406;2022-09-09T13:55:56;3.85;;;1.20;;
25731;SDS011;13585;50.864;4.406;2022-09-09T13:58:23;3.10;;;1.35;;
25731;SDS011;13585;50.864;4.406;2022-09-09T14:00:50;4.10;;;1.00;;
25731;SDS011;13585;50.864;4.406;2022-09-09T14:03:17;2.47;;;0.90;;
25731;SDS011;13585;50.864;4.406;2022-09-09T14:05:44;3.63;;;1.27;;
25731;SDS011;13585;50.864;4.406;2022-09-09T14:08:12;2.60;;;1.20;;
25731;SDS011;13585;50.864;4.406;2022-09-09T14:10:44;4.40;;;1.20;;
25731;SDS011;13585;50.864;4.406;2022-09-09T14:13:10;2.72;;;0.93;;
25731;SDS011;13585;50.864;4.406;2022-09-09T14:15:37;4.18;;;1.10;;
25731;SDS011;13585;50.864;4.406;2022-09-09T14:18:03;3.70;;;0.88;;
25731;SDS011;13585;50.864;4.406;2022-09-09T14:20:29;3.08;;;0.98;;
25731;SDS011;13585;50.864;4.406;2022-09-09T14:22:55;1.83;;;0.80;;
25731;SDS011;13585;50.864;4.406;2022-09-09T14:25:22;2.55;;;0.90;;
25731;SDS011;13585;50.864;4.406;2022-09-09T14:27:48;1.27;;;0.80;;
25731;SDS011;13585;50.864;4.406;2022-09-09T14:30:16;3.10;;;1.05;;
25731;SDS011;13585;50.864;4.406;2022-09-09T14:32:42;1.67;;;0.70;;
25731;SDS011;13585;50.864;4.406;2022-09-09T14:35:08;2.15;;;0.90;;
25731;SDS011;13585;50.864;4.406;2022-09-09T14:37:33;3.95;;;1.10;;
25731;SDS011;13585;50.864;4.406;2022-09-09T14:40:18;2.67;;;1.00;;
25731;SDS011;13585;50.864;4.406;2022-09-09T14:42:44;3.05;;;0.70;;
25731;SDS011;13585;50.864;4.406;2022-09-09T14:45:28;6.53;;;1.02;;
25731;SDS011;13585;50.864;4.406;2022-09-09T14:47:54;4.47;;;1.00;;
25731;SDS011;13585;50.864;4.406;2022-09-09T14:50:20;2.25;;;0.98;;
25731;SDS011;13585;50.864;4.406;2022-09-09T14:52:56;3.33;;;1.05;;
25731;SDS011;13585;50.864;4.406;2022-09-09T14:55:28;3.92;;;1.40;;
25731;SDS011;13585;50.864;4.406;2022-09-09T14:57:54;2.50;;;0.90;;
25731;SDS011;13585;50.864;4.406;2022-09-09T15:00:23;3.63;;;0.90;;
25731;SDS011;13585;50.864;4.406;2022-09-09T15:02:51;5.00;;;1.33;;
25731;SDS011;13585;50.864;4.406;2022-09-09T15:05:21;4.15;;;1.13;;
25731;SDS011;13585;50.864;4.406;2022-09-09T15:07:47;2.60;;;0.95;;
25731;SDS011;13585;50.864;4.406;2022-09-09T15:10:14;2.25;;;1.00;;
25731;SDS011;13585;50.864;4.406;2022-09-09T15:12:42;3.33;;;1.30;;
25731;SDS011;13585;50.864;4.406;2022-09-09T15:15:27;5.38;;;1.30;;
25731;SDS011;13585;50.864;4.406;2022-09-09T15:17:52;1.77;;;0.98;;
25731;SDS011;13585;50.864;4.406;2022-09-09T15:20:18;4.35;;;1.23;;
25731;SDS011;13585;50.864;4.406;2022-09-09T15:22:47;2.55;;;0.90;;
25731;SDS011;13585;50.864;4.406;2022-09-09T15:25:16;4.20;;;1.15;;
25731;SDS011;13585;50.864;4.406;2022-09-09T15:27:44;3.00;;;1.10;;
25731;SDS011;13585;50.864;4.406;2022-09-09T15:30:10;3.63;;;1.05;;
25731;SDS011;13585;50.864;4.406;2022-09-09T15:32:42;4.43;;;1.33;;
25731;SDS011;13585;50.864;4.406;2022-09-09T15:35:17;3.20;;;1.25;;
25731;SDS011;13585;50.864;4.406;2022-09-09T15:37:43;2.80;;;1.00;;
25731;SDS011;13585;50.864;4.406;2022-09-09T15:40:10;2.38;;;1.00;;
25731;SDS011;13585;50.864;4.406;2022-09-09T15:42:36;4.82;;;1.00;;
25731;SDS011;13585;50.864;4.406;2022-09-09T15:45:02;2.78;;;0.98;;
25731;SDS011;13585;50.864;4.406;2022-09-09T15:47:33;2.85;;;0.95;;
25731;SDS011;13585;50.864;4.406;2022-09-09T15:50:02;2.72;;;0.77;;
25731;SDS011;13585;50.864;4.406;2022-09-09T15:52:30;3.50;;;1.10;;
25731;SDS011;13585;50.864;4.406;2022-09-09T15:54:56;4.03;;;1.20;;
25731;SDS011;13585;50.864;4.406;2022-09-09T15:57:25;2.40;;;0.90;;
25731;SDS011;13585;50.864;4.406;2022-09-09T15:59:54;2.58;;;1.15;;
25731;SDS011;13585;50.864;4.406;2022-09-09T16:02:20;3.63;;;1.10;;
25731;SDS011;13585;50.864;4.406;2022-09-09T16:04:46;3.30;;;1.08;;
25731;SDS011;13585;50.864;4.406;2022-09-09T16:07:12;2.33;;;0.80;;
25731;SDS011;13585;50.864;4.406;2022-09-09T16:09:44;2.10;;;0.80;;
25731;SDS011;13585;50.864;4.406;2022-09-09T16:12:19;5.22;;;1.20;;
25731;SDS011;13585;50.864;4.406;2022-09-09T16:14:44;2.03;;;0.98;;
25731;SDS011;13585;50.864;4.406;2022-09-09T16:17:10;3.55;;;1.10;;
25731;SDS011;13585;50.864;4.406;2022-09-09T16:19:36;2.92;;;1.10;;
25731;SDS011;13585;50.864;4.406;2022-09-09T16:22:02;3.00;;;1.20;;
25731;SDS011;13585;50.864;4.406;2022-09-09T16:24:29;5.68;;;1.20;;
25731;SDS011;13585;50.864;4.406;2022-09-09T16:26:55;1.20;;;0.80;;
25731;SDS011;13585;50.864;4.406;2022-09-09T16:29:21;4.40;;;1.15;;
25731;SDS011;13585;50.864;4.406;2022-09-09T16:31:48;2.63;;;0.88;;
25731;SDS011;13585;50.864;4.406;2022-09-09T16:34:15;5.47;;;1.08;;
25731;SDS011;13585;50.864;4.406;2022-09-09T16:36:43;4.15;;;1.17;;
25731;SDS011;13585;50.864;4.406;2022-09-09T16:39:10;2.88;;;0.98;;
25731;SDS011;13585;50.864;4.406;2022-09-09T16:41:38;2.35;;;1.00;;
25731;SDS011;13585;50.864;4.406;2022-09-09T16:44:06;2.63;;;1.13;;
25731;SDS011;13585;50.864;4.406;2022-09-09T16:46:37;2.40;;;1.00;;
25731;SDS011;13585;50.864;4.406;2022-09-09T16:49:10;3.42;;;1.00;;
25731;SDS011;13585;50.864;4.406;2022-09-09T16:51:38;2.88;;;1.05;;
25731;SDS011;13585;50.864;4.406;2022-09-09T16:54:09;1.95;;;0.90;;
25731;SDS011;13585;50.864;4.406;2022-09-09T16:56:37;3.80;;;1.15;;
25731;SDS011;13585;50.864;4.406;2022-09-09T16:59:08;2.85;;;1.10;;
25731;SDS011;13585;50.864;4.406;2022-09-09T17:01:41;3.90;;;1.13;;
25731;SDS011;13585;50.864;4.406;2022-09-09T17:04:10;2.20;;;1.00;;
25731;SDS011;13585;50.864;4.406;2022-09-09T17:06:38;1.95;;;0.70;;
25731;SDS011;13585;50.864;4.406;2022-09-09T17:09:07;3.63;;;1.15;;
25731;SDS011;13585;50.864;4.406;2022-09-09T17:11:34;2.03;;;1.00;;
25731;SDS011;13585;50.864;4.406;2022-09-09T17:14:17;2.45;;;1.08;;
25731;SDS011;13585;50.864;4.406;2022-09-09T17:23:23;1.90;;;0.88;;
25731;SDS011;13585;50.864;4.406;2022-09-09T17:25:58;1.95;;;0.82;;
25731;SDS011;13585;50.864;4.406;2022-09-09T17:28:25;2.10;;;0.90;;
25731;SDS011;13585;50.864;4.406;2022-09-09T17:30:56;2.25;;;1.02;;
25731;SDS011;13585;50.864;4.406;2022-09-09T17:33:27;1.48;;;0.90;;
25731;SDS011;13585;50.864;4.406;2022-09-09T17:35:59;1.90;;;0.98;;
25731;SDS011;13585;50.864;4.406;2022-09-09T17:38:27;3.28;;;1.17;;
25731;SDS011;13585;50.864;4.406;2022-09-09T17:41:03;2.47;;;0.93;;
25731;SDS011;13585;50.864;4.406;2022-09-09T17:43:37;2.25;;;1.08;;
25731;SDS011;13585;50.864;4.406;2022-09-09T17:48:38;3.78;;;1.10;;
25731;SDS011;13585;50.864;4.406;2022-09-09T17:51:06;1.65;;;0.98;;
25731;SDS011;13585;50.864;4.406;2022-09-09T17:53:37;3.67;;;1.08;;
25731;SDS011;13585;50.864;4.406;2022-09-09T17:56:05;4.50;;;1.20;;
25731;SDS011;13585;50.864;4.406;2022-09-09T17:58:33;1.88;;;0.88;;
25731;SDS011;13585;50.864;4.406;2022-09-09T18:01:12;2.38;;;0.90;;
25731;SDS011;13585;50.864;4.406;2022-09-09T18:03:40;2.83;;;1.00;;